Time;durP1;ratioP1;P1;durP2;ratioP2;P2;SDS_P1;SDS_P2;PMS_P1;PMS_P2;Temp;Humidity;BMP_temperature;BMP_pressure;BME280_temperature;BME280_humidity;BME280_pressure;Samples;Min_cycle;Max_cycle;Signal;HPM_P1;HPM_P2
2022/03/30 00:01:19;;;;;;;2.17;1.15;;;6.00;99.90;;;;;;4969113;28;20050;-79
2022/03/30 00:03:45;;;;;;;5.97;1.63;;;6.00;99.90;;;;;;4969151;28;20057;-80
2022/03/30 00:06:10;;;;;;;2.88;1.25;;;6.00;99.90;;;;;;4969408;28;20394;-77
2022/03/30 00:08:37;;;;;;;10.32;1.55;;;6.00;99.90;;;;;;4969582;28;20031;-79
2022/03/30 00:11:03;;;;;;;9.95;2.08;;;5.90;99.90;;;;;;4969554;28;20027;-80
2022/03/30 00:13:29;;;;;;;13.18;1.67;;;6.00;99.90;;;;;;4980095;28;20041;-79
2022/03/30 00:15:55;;;;;;;5.88;1.90;;;6.00;99.90;;;;;;4985681;28;20054;-79
2022/03/30 00:18:21;;;;;;;3.92;1.15;;;6.00;99.90;;;;;;4969709;28;20046;-80
2022/03/30 00:20:47;;;;;;;10.43;1.38;;;6.00;99.90;;;;;;5005116;28;20094;-77
2022/03/30 00:23:14;;;;;;;4.32;2.13;;;6.00;99.90;;;;;;5000912;28;20051;-79
2022/03/30 00:25:39;;;;;;;9.63;1.48;;;6.00;99.90;;;;;;5004447;28;20028;-78
2022/03/30 00:28:05;;;;;;;6.82;1.42;;;6.00;99.90;;;;;;4991011;28;20082;-80
2022/03/30 00:30:32;;;;;;;3.10;1.55;;;6.00;99.90;;;;;;4986533;28;20062;-78
2022/03/30 00:32:58;;;;;;;7.53;1.55;;;6.00;99.90;;;;;;4986425;28;20033;-80
2022/03/30 00:35:23;;;;;;;7.53;2.08;;;6.00;99.90;;;;;;4986575;28;20027;-79
2022/03/30 00:37:58;;;;;;;8.15;1.63;;;6.00;99.90;;;;;;4987307;28;20034;-79
2022/03/30 00:40:25;;;;;;;10.50;1.88;;;6.00;99.90;;;;;;4973184;28;20051;-80
2022/03/30 00:42:51;;;;;;;4.20;1.52;;;6.00;99.90;;;;;;4984505;28;20046;-81
2022/03/30 00:45:21;;;;;;;11.02;1.67;;;6.00;99.90;;;;;;4985048;28;20113;-79
2022/03/30 00:47:47;;;;;;;7.32;2.72;;;5.90;99.90;;;;;;4985276;28;20038;-80
2022/03/30 00:50:16;;;;;;;3.08;1.55;;;5.90;99.90;;;;;;4985847;28;20088;-80
2022/03/30 00:52:42;;;;;;;3.85;2.13;;;5.90;99.90;;;;;;4984891;28;20031;-79
2022/03/30 00:55:09;;;;;;;4.93;2.17;;;5.80;99.90;;;;;;4987188;28;20053;-81
2022/03/30 00:57:37;;;;;;;9.45;2.28;;;5.90;99.90;;;;;;4969244;28;20027;-78
2022/03/30 01:00:09;;;;;;;5.97;2.65;;;5.80;99.90;;;;;;4968901;28;20044;-80
2022/03/30 01:02:40;;;;;;;11.70;2.15;;;5.80;99.90;;;;;;4975340;28;20046;-82
2022/03/30 01:05:07;;;;;;;11.85;2.90;;;5.80;99.90;;;;;;4988058;28;20031;-78
2022/03/30 01:07:33;;;;;;;4.07;1.75;;;5.80;99.90;;;;;;4987557;28;20037;-79
2022/03/30 01:10:10;;;;;;;15.02;2.88;;;5.80;99.90;;;;;;5009414;28;20030;-79
2022/03/30 01:12:39;;;;;;;10.98;2.50;;;5.80;99.90;;;;;;5004129;28;20042;-77
2022/03/30 01:15:10;;;;;;;5.03;1.83;;;5.90;99.90;;;;;;4987988;28;20430;-76
2022/03/30 01:17:37;;;;;;;3.67;1.83;;;5.90;99.90;;;;;;4987818;28;20033;-77
2022/03/30 01:20:09;;;;;;;10.55;3.15;;;5.80;99.90;;;;;;4987402;28;20062;-80
2022/03/30 01:22:35;;;;;;;10.18;2.10;;;5.80;99.90;;;;;;5005300;28;20046;-80
2022/03/30 01:25:01;;;;;;;5.60;1.75;;;5.90;99.90;;;;;;4987087;28;20030;-78
2022/03/30 01:27:26;;;;;;;10.73;1.77;;;5.80;99.90;;;;;;5003915;28;20038;-79
2022/03/30 01:32:37;;;;;;;5.97;2.22;;;5.90;99.90;;;;;;4985715;28;20034;-79
2022/03/30 01:35:10;;;;;;;12.10;2.83;;;6.00;99.90;;;;;;4987939;28;20410;-80
2022/03/30 01:37:36;;;;;;;6.18;2.10;;;5.80;99.90;;;;;;5005265;28;20027;-78
2022/03/30 01:40:05;;;;;;;11.60;2.00;;;5.90;99.90;;;;;;4987786;28;20039;-78
2022/03/30 01:42:32;;;;;;;3.10;2.03;;;5.90;99.90;;;;;;4987290;28;20114;-79
2022/03/30 01:45:03;;;;;;;7.88;2.58;;;5.90;99.90;;;;;;5001077;28;20113;-77
2022/03/30 01:47:29;;;;;;;5.80;1.75;;;5.90;99.90;;;;;;4986795;28;20023;-79
2022/03/30 01:49:54;;;;;;;4.20;2.15;;;5.80;99.90;;;;;;4985074;28;20031;-76
2022/03/30 01:52:20;;;;;;;5.53;2.13;;;5.80;99.90;;;;;;4987275;28;20022;-77
2022/03/30 01:54:46;;;;;;;5.43;2.10;;;5.80;99.90;;;;;;4989946;28;20031;-77
2022/03/30 01:57:16;;;;;;;6.75;2.28;;;5.80;99.90;;;;;;4990878;28;20027;-78
2022/03/30 01:59:44;;;;;;;3.50;1.67;;;5.80;99.90;;;;;;4989999;28;20042;-77
2022/03/30 02:02:11;;;;;;;6.30;1.88;;;5.80;99.90;;;;;;5008268;28;20029;-76
2022/03/30 02:04:40;;;;;;;12.65;2.70;;;5.80;99.90;;;;;;5009920;28;20018;-79
2022/03/30 02:07:12;;;;;;;21.23;2.35;;;5.80;99.90;;;;;;5008638;28;20458;-79
2022/03/30 02:09:39;;;;;;;3.63;1.83;;;5.80;99.90;;;;;;4989994;28;20027;-80
2022/03/30 02:12:06;;;;;;;8.80;1.98;;;5.70;99.90;;;;;;4990437;28;20030;-80
2022/03/30 02:14:32;;;;;;;3.92;1.85;;;5.70;99.90;;;;;;4990248;28;20086;-78
2022/03/30 02:16:57;;;;;;;15.15;1.63;;;5.70;99.90;;;;;;4988256;28;20031;-79
2022/03/30 02:19:23;;;;;;;15.90;3.50;;;5.70;99.90;;;;;;4972537;28;20038;-77
2022/03/30 02:21:52;;;;;;;5.95;2.78;;;5.70;99.90;;;;;;4988326;28;20053;-82
2022/03/30 02:24:18;;;;;;;4.53;1.80;;;5.70;99.90;;;;;;4990464;28;20027;-79
2022/03/30 02:26:45;;;;;;;3.45;2.35;;;5.70;99.90;;;;;;4992708;28;20033;-75
2022/03/30 02:29:11;;;;;;;2.75;1.60;;;5.70;99.90;;;;;;4991052;28;20454;-80
2022/03/30 02:31:50;;;;;;;6.65;2.72;;;5.70;99.90;;;;;;5009128;28;20026;-78
2022/03/30 02:34:16;;;;;;;15.80;2.20;;;5.70;99.90;;;;;;4990406;28;20035;-77
2022/03/30 02:36:43;;;;;;;10.05;2.60;;;5.60;99.90;;;;;;5008759;28;20038;-79
2022/03/30 02:39:11;;;;;;;4.30;2.03;;;5.60;99.90;;;;;;5007428;28;20058;-81
2022/03/30 02:41:36;;;;;;;10.60;2.30;;;5.70;99.90;;;;;;5028368;28;20026;-80
2022/03/30 02:44:02;;;;;;;9.85;1.95;;;5.70;99.90;;;;;;5029237;28;20049;-80
2022/03/30 02:46:28;;;;;;;10.77;2.25;;;5.60;99.90;;;;;;5029185;28;20080;-77
2022/03/30 02:48:53;;;;;;;6.82;2.95;;;5.60;99.90;;;;;;5009922;28;20026;-78
2022/03/30 02:51:19;;;;;;;10.10;2.13;;;5.60;99.90;;;;;;5011055;28;20117;-79
2022/03/30 02:53:46;;;;;;;12.73;2.60;;;5.60;99.90;;;;;;5012427;28;20050;-78
2022/03/30 02:56:12;;;;;;;9.68;1.90;;;5.60;99.90;;;;;;4976915;28;20031;-79
2022/03/30 02:58:38;;;;;;;3.55;2.03;;;5.60;99.90;;;;;;5008807;28;20454;-79
2022/03/30 03:01:03;;;;;;;6.95;2.28;;;5.70;99.90;;;;;;5008383;28;20026;-78
2022/03/30 03:03:33;;;;;;;4.28;1.50;;;5.60;99.90;;;;;;4991378;28;20482;-80
2022/03/30 03:05:59;;;;;;;4.60;1.60;;;5.70;99.90;;;;;;4991260;28;20059;-78
2022/03/30 03:08:24;;;;;;;10.25;2.22;;;5.60;99.90;;;;;;5007998;28;20030;-80
2022/03/30 03:10:56;;;;;;;9.57;2.05;;;5.70;99.90;;;;;;4990774;28;20046;-77
2022/03/30 03:13:27;;;;;;;5.03;2.25;;;5.60;99.90;;;;;;5006336;28;20117;-77
2022/03/30 03:15:53;;;;;;;6.13;2.30;;;5.60;99.90;;;;;;4986863;28;20030;-80
2022/03/30 03:18:19;;;;;;;13.00;2.50;;;5.70;99.90;;;;;;4987119;28;20475;-77
2022/03/30 03:20:47;;;;;;;8.10;2.38;;;5.60;99.90;;;;;;5005183;28;20082;-78
2022/03/30 03:23:20;;;;;;;8.07;2.65;;;5.60;99.90;;;;;;4970628;28;20121;-82
2022/03/30 03:25:46;;;;;;;11.43;2.17;;;5.60;99.90;;;;;;4988680;28;20042;-80
2022/03/30 03:28:13;;;;;;;9.05;2.97;;;5.60;99.90;;;;;;4970600;28;20038;-80
2022/03/30 03:30:39;;;;;;;6.13;2.60;;;5.60;99.90;;;;;;4969674;28;20053;-78
2022/03/30 03:33:06;;;;;;;5.40;1.98;;;5.60;99.90;;;;;;4974318;28;20031;-81
2022/03/30 03:35:33;;;;;;;4.05;2.13;;;5.70;99.90;;;;;;4987171;28;20026;-80
2022/03/30 03:37:59;;;;;;;10.15;2.08;;;5.50;99.90;;;;;;4986602;28;20037;-78
2022/03/30 03:40:26;;;;;;;4.45;1.90;;;5.50;99.90;;;;;;4989328;28;20097;-78
2022/03/30 03:42:52;;;;;;;5.65;1.90;;;5.50;99.90;;;;;;4986225;28;20113;-78
2022/03/30 03:45:18;;;;;;;5.93;2.75;;;5.50;99.90;;;;;;4970777;28;20071;-79
2022/03/30 03:47:48;;;;;;;5.82;2.25;;;5.50;99.90;;;;;;4978719;28;20029;-78
2022/03/30 03:50:14;;;;;;;8.85;2.25;;;5.40;99.90;;;;;;4986095;28;20030;-75
2022/03/30 03:52:40;;;;;;;5.82;2.67;;;5.50;99.90;;;;;;4987540;28;20023;-79
2022/03/30 03:55:06;;;;;;;9.35;2.30;;;5.50;99.90;;;;;;4969644;28;20023;-79
2022/03/30 03:57:33;;;;;;;8.55;2.97;;;5.50;99.90;;;;;;4973142;28;20034;-78
2022/03/30 04:00:04;;;;;;;4.70;1.70;;;5.50;99.90;;;;;;4987335;28;20466;-78
2022/03/30 04:02:31;;;;;;;3.60;1.92;;;5.50;99.90;;;;;;4969411;28;20026;-77
2022/03/30 04:04:56;;;;;;;14.10;3.10;;;5.50;99.90;;;;;;4986445;28;20069;-78
2022/03/30 04:07:22;;;;;;;4.97;1.85;;;5.50;99.90;;;;;;4987700;28;20034;-76
2022/03/30 04:10:02;;;;;;;5.22;2.05;;;5.40;99.90;;;;;;4986864;28;20030;-81
2022/03/30 04:12:28;;;;;;;7.30;2.47;;;5.50;99.90;;;;;;4985704;28;20098;-80
2022/03/30 04:14:54;;;;;;;9.25;2.85;;;5.50;99.90;;;;;;4985731;28;20038;-79
2022/03/30 04:17:20;;;;;;;4.72;2.05;;;5.50;99.90;;;;;;4987082;28;20034;-79
2022/03/30 04:19:46;;;;;;;7.38;2.50;;;5.50;99.90;;;;;;4986597;28;20043;-78
2022/03/30 04:22:11;;;;;;;10.32;3.22;;;5.50;99.90;;;;;;4986924;28;20053;-81
2022/03/30 04:24:38;;;;;;;10.02;2.42;;;5.60;99.90;;;;;;4985975;28;20027;-81
2022/03/30 04:27:04;;;;;;;5.18;1.83;;;5.50;99.90;;;;;;4985839;28;20042;-80
2022/03/30 04:29:29;;;;;;;10.30;2.08;;;5.40;99.90;;;;;;4985544;28;20038;-78
2022/03/30 04:31:55;;;;;;;5.55;2.13;;;5.40;99.90;;;;;;4984908;28;20026;-78
2022/03/30 04:34:27;;;;;;;7.07;2.17;;;5.40;99.90;;;;;;4986453;28;20090;-80
2022/03/30 04:36:53;;;;;;;8.57;2.38;;;5.30;99.90;;;;;;4985208;28;20693;-78
2022/03/30 04:39:18;;;;;;;6.90;2.08;;;5.30;99.90;;;;;;4987450;28;20038;-81
2022/03/30 04:41:44;;;;;;;6.45;2.15;;;5.30;99.90;;;;;;5025489;28;20029;-80
2022/03/30 04:44:09;;;;;;;12.80;2.03;;;5.30;99.90;;;;;;5008610;28;20026;-79
2022/03/30 04:46:35;;;;;;;11.02;1.95;;;5.30;99.90;;;;;;5026474;28;20037;-81
2022/03/30 04:49:01;;;;;;;9.57;1.90;;;5.30;99.90;;;;;;5008113;28;20030;-80
2022/03/30 04:51:26;;;;;;;9.57;3.28;;;5.20;99.90;;;;;;5008306;28;20497;-77
2022/03/30 04:53:56;;;;;;;6.72;2.63;;;5.20;99.90;;;;;;5007788;28;20047;-81
2022/03/30 04:56:21;;;;;;;1.70;1.25;;;5.20;99.90;;;;;;5008451;28;20118;-81
2022/03/30 04:58:47;;;;;;;9.55;2.58;;;5.10;99.90;;;;;;5026042;28;20042;-80
2022/03/30 05:01:12;;;;;;;10.05;2.10;;;5.10;99.90;;;;;;5025725;28;20018;-78
2022/03/30 05:03:47;;;;;;;6.45;2.10;;;5.10;99.90;;;;;;5025988;28;20026;-82
2022/03/30 05:06:13;;;;;;;3.70;1.55;;;5.10;99.90;;;;;;5007789;28;20026;-79
2022/03/30 05:08:39;;;;;;;18.02;2.88;;;5.10;99.90;;;;;;5007979;28;20493;-80
2022/03/30 05:11:10;;;;;;;11.82;2.80;;;5.00;99.90;;;;;;5025826;28;20496;-82
2022/03/30 05:13:43;;;;;;;9.73;2.20;;;5.00;99.90;;;;;;4986834;28;20042;-80
2022/03/30 05:16:09;;;;;;;8.45;1.85;;;5.00;99.90;;;;;;4994256;28;20019;-80
2022/03/30 05:18:35;;;;;;;7.82;2.85;;;5.10;99.90;;;;;;5000197;28;20073;-80
2022/03/30 05:21:00;;;;;;;11.18;2.00;;;5.10;99.90;;;;;;4980317;28;20058;-77
2022/03/30 05:23:29;;;;;;;7.18;1.95;;;5.10;99.90;;;;;;4989661;28;20130;-76
2022/03/30 05:25:54;;;;;;;8.00;2.65;;;5.20;99.90;;;;;;4987451;28;20111;-75
2022/03/30 05:28:20;;;;;;;9.45;2.72;;;5.20;99.90;;;;;;5008471;28;20026;-75
2022/03/30 05:30:46;;;;;;;5.30;1.50;;;5.20;99.90;;;;;;5002653;28;20062;-74
2022/03/30 05:33:12;;;;;;;3.38;1.77;;;5.20;99.90;;;;;;4995864;28;20050;-74
2022/03/30 05:35:44;;;;;;;4.40;1.52;;;5.20;99.90;;;;;;4995882;28;20038;-75
2022/03/30 05:38:11;;;;;;;11.05;2.05;;;5.30;99.90;;;;;;4994091;28;20030;-75
2022/03/30 05:40:38;;;;;;;9.07;2.88;;;5.30;99.90;;;;;;4994374;28;20042;-76
2022/03/30 05:43:08;;;;;;;4.18;2.05;;;5.30;99.90;;;;;;4985198;28;20033;-75
2022/03/30 05:45:40;;;;;;;6.70;2.22;;;5.40;99.90;;;;;;4996108;28;20118;-74
2022/03/30 05:48:05;;;;;;;16.73;3.88;;;5.40;99.90;;;;;;5002565;28;20042;-75
2022/03/30 05:50:31;;;;;;;5.00;2.40;;;5.40;99.90;;;;;;5008033;28;20089;-73
2022/03/30 05:52:57;;;;;;;6.57;2.83;;;5.40;99.90;;;;;;5007605;28;20045;-73
2022/03/30 05:55:23;;;;;;;11.60;2.83;;;5.40;99.90;;;;;;4990559;28;20477;-75
2022/03/30 05:57:48;;;;;;;17.25;3.88;;;5.40;99.90;;;;;;4990817;28;20018;-73
2022/03/30 06:00:14;;;;;;;6.97;2.10;;;5.50;99.90;;;;;;5007461;28;20046;-76
2022/03/30 06:02:40;;;;;;;5.40;2.22;;;5.50;99.90;;;;;;4991263;28;20050;-74
2022/03/30 06:05:07;;;;;;;13.77;2.58;;;5.50;99.90;;;;;;4990273;28;20027;-74
2022/03/30 06:07:33;;;;;;;11.63;2.35;;;5.40;99.90;;;;;;4990805;28;20030;-77
2022/03/30 06:09:59;;;;;;;3.10;1.60;;;5.40;99.90;;;;;;5007620;28;20808;-75
2022/03/30 06:12:25;;;;;;;19.20;2.85;;;5.40;99.90;;;;;;5013990;28;20032;-74
2022/03/30 06:14:52;;;;;;;4.00;2.05;;;5.60;99.90;;;;;;4996689;28;20110;-73
2022/03/30 06:17:19;;;;;;;8.43;3.53;;;5.40;99.90;;;;;;5002940;28;20029;-75
2022/03/30 06:19:52;;;;;;;7.90;2.63;;;5.40;99.90;;;;;;4997173;28;20104;-75
2022/03/30 06:22:18;;;;;;;3.45;1.95;;;5.40;99.90;;;;;;5003302;28;20398;-74
2022/03/30 06:24:45;;;;;;;8.95;2.38;;;5.50;99.90;;;;;;4989213;28;20118;-74
2022/03/30 06:27:17;;;;;;;11.73;2.55;;;5.50;99.90;;;;;;4990537;28;20125;-74
2022/03/30 06:29:42;;;;;;;4.13;1.95;;;5.50;99.90;;;;;;5006773;28;20094;-72
2022/03/30 06:32:09;;;;;;;13.50;3.53;;;5.40;99.90;;;;;;4984069;28;20041;-74
2022/03/30 06:34:37;;;;;;;9.88;2.70;;;5.40;99.90;;;;;;4999972;28;20059;-76
2022/03/30 06:37:06;;;;;;;9.18;3.30;;;5.40;99.90;;;;;;4987289;28;20077;-76
2022/03/30 06:39:33;;;;;;;19.33;3.00;;;5.40;99.90;;;;;;4985450;28;20109;-74
2022/03/30 06:41:59;;;;;;;11.65;2.72;;;5.40;99.90;;;;;;5004932;28;20026;-73
2022/03/30 06:44:24;;;;;;;10.52;3.65;;;5.50;99.90;;;;;;5005784;28;20040;-73
2022/03/30 06:46:50;;;;;;;9.27;3.03;;;5.40;99.90;;;;;;5003544;28;20023;-73
2022/03/30 06:49:17;;;;;;;6.47;3.00;;;5.30;99.90;;;;;;4989332;28;20033;-73
2022/03/30 06:51:42;;;;;;;12.05;2.25;;;5.40;99.90;;;;;;4988890;28;20587;-74
2022/03/30 06:54:09;;;;;;;7.97;3.00;;;5.40;99.90;;;;;;5003096;28;20030;-74
2022/03/30 06:56:36;;;;;;;13.85;2.67;;;5.40;99.90;;;;;;5006372;28;20031;-75
2022/03/30 06:59:03;;;;;;;6.00;2.13;;;5.40;99.90;;;;;;5004955;28;20074;-74
2022/03/30 07:01:34;;;;;;;6.05;2.50;;;5.40;99.90;;;;;;5007227;28;20038;-74
2022/03/30 07:04:00;;;;;;;11.00;1.40;;;5.50;99.90;;;;;;4989324;28;20030;-74
2022/03/30 07:06:25;;;;;;;3.55;1.55;;;5.40;99.90;;;;;;5007329;28;20048;-73
2022/03/30 07:11:35;;;;;;;2.53;1.33;;;5.50;99.90;;;;;;5007369;28;20122;-73
2022/03/30 07:14:00;;;;;;;4.30;2.00;;;5.50;99.90;;;;;;4983693;28;20035;-73
2022/03/30 07:16:26;;;;;;;3.75;1.75;;;5.60;99.90;;;;;;4996658;28;20046;-73
2022/03/30 07:18:53;;;;;;;3.17;1.27;;;5.60;99.90;;;;;;5003870;28;20054;-73
2022/03/30 07:21:20;;;;;;;3.58;1.35;;;5.60;99.90;;;;;;5007672;28;20033;-73
2022/03/30 07:23:47;;;;;;;3.38;1.20;;;5.60;99.90;;;;;;4998551;28;20031;-73
2022/03/30 07:26:12;;;;;;;3.53;1.45;;;5.60;99.90;;;;;;4994479;28;20030;-74
2022/03/30 07:28:38;;;;;;;3.78;1.45;;;5.60;99.90;;;;;;4996256;28;20086;-73
2022/03/30 07:31:04;;;;;;;2.60;1.30;;;5.60;99.90;;;;;;4987582;28;20026;-73
2022/03/30 07:33:32;;;;;;;2.15;1.17;;;5.60;99.90;;;;;;5007847;28;20048;-74
2022/03/30 07:35:58;;;;;;;7.20;2.40;;;5.70;99.90;;;;;;5005973;28;20068;-73
2022/03/30 07:38:23;;;;;;;4.15;1.58;;;5.90;99.90;;;;;;4996471;28;20475;-73
2022/03/30 07:40:49;;;;;;;2.55;1.35;;;5.90;99.90;;;;;;5014042;28;20044;-73
2022/03/30 07:43:18;;;;;;;6.85;1.73;;;5.80;99.90;;;;;;5007646;28;20026;-74
2022/03/30 07:45:45;;;;;;;2.65;1.88;;;5.70;99.90;;;;;;5007591;28;20072;-73
2022/03/30 07:48:14;;;;;;;4.13;2.17;;;5.80;99.90;;;;;;5026303;28;20054;-73
2022/03/30 07:50:41;;;;;;;8.23;2.55;;;5.60;99.90;;;;;;5025906;28;20078;-74
2022/03/30 07:53:11;;;;;;;6.13;2.60;;;5.60;99.90;;;;;;5007955;28;20153;-75
2022/03/30 07:55:39;;;;;;;5.63;1.58;;;5.50;99.90;;;;;;4993376;28;20034;-74
2022/03/30 07:58:06;;;;;;;2.55;1.50;;;5.40;99.90;;;;;;5005082;28;20342;-74
2022/03/30 08:00:32;;;;;;;3.03;1.90;;;5.40;99.90;;;;;;4998474;28;20026;-73
2022/03/30 08:02:59;;;;;;;4.88;1.30;;;5.30;99.90;;;;;;5005911;28;20034;-73
2022/03/30 08:05:31;;;;;;;3.72;1.38;;;5.30;99.90;;;;;;4983907;28;20025;-74
2022/03/30 08:07:56;;;;;;;2.47;1.55;;;5.20;99.90;;;;;;4977662;28;20061;-74
2022/03/30 08:10:35;;;;;;;2.45;1.70;;;5.30;99.90;;;;;;4990553;28;20053;-75
2022/03/30 08:13:02;;;;;;;4.82;1.85;;;5.20;99.90;;;;;;4990785;28;20037;-73
2022/03/30 08:15:28;;;;;;;3.38;1.88;;;5.20;99.90;;;;;;4983806;28;20069;-74
2022/03/30 08:17:54;;;;;;;3.55;1.77;;;5.20;99.90;;;;;;4968156;28;20030;-73
2022/03/30 08:23:07;;;;;;;5.18;2.75;;;5.20;99.90;;;;;;4987978;28;20053;-73
2022/03/30 08:25:35;;;;;;;5.20;2.80;;;5.10;99.90;;;;;;4984326;28;20030;-73
2022/03/30 08:28:02;;;;;;;6.75;2.47;;;5.10;99.90;;;;;;4984333;28;20023;-73
2022/03/30 08:30:28;;;;;;;4.82;2.92;;;5.20;99.90;;;;;;4984994;28;20093;-75
2022/03/30 08:32:54;;;;;;;5.30;2.45;;;5.10;99.90;;;;;;4984756;28;20031;-74
2022/03/30 08:35:21;;;;;;;4.55;2.70;;;5.10;99.90;;;;;;4987679;28;20042;-73
2022/03/30 08:37:46;;;;;;;4.85;2.38;;;5.00;99.90;;;;;;5005430;28;20053;-72
2022/03/30 08:40:12;;;;;;;4.90;2.80;;;5.10;99.90;;;;;;5004921;28;20050;-73
2022/03/30 08:42:41;;;;;;;3.00;2.15;;;5.10;99.90;;;;;;5005406;28;20022;-74
2022/03/30 08:45:09;;;;;;;4.53;2.10;;;5.20;99.90;;;;;;5004919;28;20050;-74
2022/03/30 08:47:38;;;;;;;5.05;2.60;;;5.20;99.90;;;;;;5004449;28;20049;-75
2022/03/30 08:50:07;;;;;;;3.58;2.03;;;5.20;99.90;;;;;;5004737;28;20030;-74
2022/03/30 08:52:37;;;;;;;2.38;1.65;;;5.20;99.90;;;;;;4985660;28;20093;-74
2022/03/30 08:55:11;;;;;;;3.25;1.60;;;5.20;99.90;;;;;;5004565;28;20026;-73
2022/03/30 08:57:40;;;;;;;3.03;1.88;;;5.20;99.90;;;;;;4983732;28;20041;-74
2022/03/30 09:00:17;;;;;;;1.90;1.45;;;5.20;99.90;;;;;;4985104;28;20045;-74
2022/03/30 09:02:46;;;;;;;2.97;1.60;;;5.20;99.90;;;;;;4986620;28;20097;-74
2022/03/30 09:05:20;;;;;;;2.05;1.27;;;5.10;99.90;;;;;;4983996;28;20039;-74
2022/03/30 09:08:10;;;;;;;2.78;1.63;;;5.10;99.90;;;;;;4990087;28;20081;-73
2022/03/30 09:10:38;;;;;;;1.80;1.25;;;5.00;99.90;;;;;;5002448;28;20053;-74
2022/03/30 09:13:05;;;;;;;3.58;1.50;;;4.90;99.90;;;;;;5003080;28;20040;-73
2022/03/30 09:15:34;;;;;;;2.00;1.13;;;4.90;99.90;;;;;;5001497;28;20127;-73
2022/03/30 09:18:02;;;;;;;1.55;0.95;;;4.90;99.90;;;;;;4993101;28;20035;-74
2022/03/30 09:20:28;;;;;;;1.30;0.70;;;4.90;99.90;;;;;;5001354;28;20053;-74
2022/03/30 09:22:56;;;;;;;1.38;1.10;;;4.90;99.90;;;;;;5001271;28;20054;-72
2022/03/30 09:25:31;;;;;;;1.73;1.00;;;4.80;99.90;;;;;;4998303;28;20113;-73
2022/03/30 09:27:59;;;;;;;1.75;0.93;;;5.00;99.90;;;;;;4995105;28;20041;-75
2022/03/30 09:30:28;;;;;;;3.65;1.55;;;5.00;99.90;;;;;;4990717;28;20358;-73
2022/03/30 09:32:57;;;;;;;1.52;1.00;;;5.00;99.90;;;;;;4993189;28;20041;-72
2022/03/30 09:35:42;;;;;;;2.25;1.10;;;5.10;99.90;;;;;;4992751;28;20107;-74
2022/03/30 09:38:12;;;;;;;1.10;0.73;;;5.10;99.90;;;;;;4996763;28;20034;-73
2022/03/30 09:41:03;;;;;;;2.10;1.02;;;5.10;99.90;;;;;;5001167;28;20035;-74
2022/03/30 09:43:34;;;;;;;0.65;0.60;;;5.10;99.90;;;;;;4981370;28;20115;-73
2022/03/30 09:46:11;;;;;;;1.95;1.17;;;5.20;99.90;;;;;;4981794;28;20027;-73
2022/03/30 09:48:40;;;;;;;2.25;1.27;;;5.20;99.90;;;;;;4990839;28;20533;-74
2022/03/30 09:51:09;;;;;;;3.80;1.20;;;5.20;99.90;;;;;;4982094;28;20030;-74
2022/03/30 09:53:37;;;;;;;2.20;1.15;;;5.30;99.90;;;;;;5000813;28;20086;-74
2022/03/30 09:56:14;;;;;;;2.90;1.23;;;5.30;99.90;;;;;;4995564;28;20031;-74
2022/03/30 09:58:41;;;;;;;1.00;0.80;;;5.30;99.90;;;;;;4997559;28;20039;-73
2022/03/30 10:01:22;;;;;;;1.73;1.27;;;5.40;99.90;;;;;;4967845;28;20535;-73
2022/03/30 10:03:53;;;;;;;1.65;1.17;;;5.30;99.90;;;;;;5001001;28;20035;-73
2022/03/30 10:06:36;;;;;;;2.78;1.25;;;5.40;99.90;;;;;;4998565;28;20030;-72
2022/03/30 10:09:03;;;;;;;1.75;1.10;;;5.30;99.90;;;;;;5004005;28;20034;-75
2022/03/30 10:11:29;;;;;;;1.65;0.95;;;5.30;99.90;;;;;;4985816;28;20034;-74
2022/03/30 10:13:59;;;;;;;3.25;1.40;;;5.30;99.90;;;;;;5002075;28;20616;-73
2022/03/30 10:16:26;;;;;;;3.50;1.52;;;5.30;99.90;;;;;;4996281;28;20473;-74
2022/03/30 10:19:11;;;;;;;2.47;1.23;;;5.30;99.90;;;;;;4995172;28;20049;-74
2022/03/30 10:22:12;;;;;;;2.58;1.20;;;5.40;99.90;;;;;;4988308;28;20050;-75
2022/03/30 10:24:56;;;;;;;2.08;1.02;;;5.50;99.90;;;;;;5002273;28;20039;-74
2022/03/30 10:27:47;;;;;;;2.05;1.40;;;5.50;99.90;;;;;;5008084;28;20037;-73
2022/03/30 10:30:13;;;;;;;2.40;1.40;;;5.60;99.90;;;;;;4987330;28;20030;-74
2022/03/30 10:32:40;;;;;;;2.67;1.52;;;5.70;99.90;;;;;;4987140;28;20065;-75
2022/03/30 10:35:18;;;;;;;3.08;1.75;;;5.60;99.90;;;;;;4986692;28;20054;-73
2022/03/30 10:37:56;;;;;;;1.40;1.00;;;5.60;99.90;;;;;;4968377;28;20034;-74
2022/03/30 10:40:25;;;;;;;2.40;1.02;;;5.60;99.90;;;;;;4995961;28;20038;-75
2022/03/30 10:42:50;;;;;;;1.38;1.08;;;5.60;99.90;;;;;;4988926;28;20035;-74
2022/03/30 10:45:28;;;;;;;2.70;1.60;;;5.80;99.90;;;;;;5006961;28;20045;-75
2022/03/30 10:48:22;;;;;;;2.00;1.20;;;5.70;99.90;;;;;;5001146;28;20584;-74
2022/03/30 10:51:15;;;;;;;3.15;1.65;;;5.70;99.90;;;;;;5005308;28;20035;-75
2022/03/30 10:53:43;;;;;;;2.40;1.50;;;5.80;99.90;;;;;;4986663;28;20093;-76
2022/03/30 10:56:09;;;;;;;4.07;1.70;;;5.80;99.90;;;;;;4989452;28;20023;-75
2022/03/30 10:58:37;;;;;;;4.45;1.85;;;5.90;99.90;;;;;;4995225;28;20120;-76
2022/03/30 11:01:14;;;;;;;2.22;1.20;;;5.90;99.90;;;;;;4987005;28;20034;-75
2022/03/30 11:03:58;;;;;;;2.92;1.60;;;5.80;99.90;;;;;;5001404;28;20057;-76
2022/03/30 11:06:24;;;;;;;1.67;1.10;;;5.90;99.90;;;;;;5008488;28;20081;-75
2022/03/30 11:08:51;;;;;;;2.25;1.63;;;5.90;99.90;;;;;;5010247;28;20030;-76
2022/03/30 11:11:35;;;;;;;5.50;1.88;;;5.80;99.90;;;;;;5012533;28;20057;-75
2022/03/30 11:14:37;;;;;;;3.90;1.67;;;5.90;99.90;;;;;;4988404;28;20030;-75
2022/03/30 11:17:29;;;;;;;2.40;1.75;;;5.90;99.90;;;;;;4980426;28;20275;-75
2022/03/30 11:19:55;;;;;;;3.53;2.22;;;6.00;99.90;;;;;;5010347;28;20042;-75
2022/03/30 11:22:42;;;;;;;4.65;2.55;;;6.00;99.90;;;;;;5024899;28;20046;-75
2022/03/30 11:25:19;;;;;;;4.03;1.85;;;6.00;99.90;;;;;;4986093;28;20066;-75
2022/03/30 11:28:05;;;;;;;3.17;2.15;;;6.10;99.90;;;;;;4987153;28;20684;-75
2022/03/30 11:30:45;;;;;;;3.38;1.88;;;6.10;99.90;;;;;;5006330;28;20030;-76
2022/03/30 11:33:21;;;;;;;6.80;1.67;;;6.10;99.90;;;;;;4988243;28;20058;-77
2022/03/30 11:35:49;;;;;;;2.63;1.63;;;6.20;99.90;;;;;;4988264;28;20042;-77
2022/03/30 11:38:26;;;;;;;2.67;1.67;;;6.20;99.90;;;;;;4988637;28;20456;-74
2022/03/30 11:40:59;;;;;;;2.92;1.77;;;6.30;99.90;;;;;;5008258;28;20037;-76
2022/03/30 11:43:29;;;;;;;3.17;1.83;;;6.50;99.90;;;;;;5026468;28;20022;-75
2022/03/30 11:45:55;;;;;;;3.90;2.30;;;6.50;99.90;;;;;;4989784;28;20030;-76
2022/03/30 11:48:21;;;;;;;4.43;2.33;;;6.50;99.90;;;;;;4994305;28;20033;-76
2022/03/30 11:50:50;;;;;;;5.65;2.70;;;6.50;99.90;;;;;;5026892;28;20034;-78
2022/03/30 11:53:21;;;;;;;2.25;1.50;;;6.60;99.90;;;;;;5007249;28;20392;-76
2022/03/30 11:55:54;;;;;;;4.22;1.92;;;6.60;99.90;;;;;;4998417;28;20065;-75
2022/03/30 11:58:43;;;;;;;2.67;1.80;;;6.70;99.90;;;;;;4992218;28;20061;-77
2022/03/30 12:01:12;;;;;;;2.42;1.80;;;6.80;99.90;;;;;;4969698;28;20462;-76
2022/03/30 12:03:38;;;;;;;2.03;1.52;;;6.80;99.90;;;;;;4968970;28;20483;-75
2022/03/30 12:06:06;;;;;;;2.65;1.42;;;7.00;99.90;;;;;;4986764;28;20037;-76
2022/03/30 12:08:44;;;;;;;3.00;1.50;;;7.10;99.90;;;;;;4969326;28;20041;-75
2022/03/30 12:11:11;;;;;;;2.70;1.55;;;7.10;99.90;;;;;;4985854;28;20030;-80
2022/03/30 12:13:37;;;;;;;3.10;1.85;;;7.20;99.90;;;;;;4989175;28;20030;-76
2022/03/30 12:16:10;;;;;;;3.35;1.75;;;7.40;99.90;;;;;;4995562;28;20030;-77
2022/03/30 12:18:50;;;;;;;3.28;1.90;;;7.60;99.90;;;;;;4993549;28;20121;-79
2022/03/30 12:21:27;;;;;;;6.85;1.92;;;7.70;99.90;;;;;;4988915;28;20036;-76
2022/03/30 12:23:58;;;;;;;3.78;1.88;;;7.80;99.90;;;;;;5021933;28;20029;-75
2022/03/30 12:26:24;;;;;;;2.15;1.65;;;8.00;99.90;;;;;;5005084;28;20141;-76
2022/03/30 12:29:00;;;;;;;3.80;2.05;;;8.10;99.90;;;;;;5005382;28;20493;-77
2022/03/30 12:31:26;;;;;;;3.10;1.70;;;8.20;99.90;;;;;;4987989;28;20049;-75
2022/03/30 12:33:51;;;;;;;2.38;1.60;;;8.40;99.90;;;;;;4986784;28;20109;-77
2022/03/30 12:36:19;;;;;;;4.00;2.30;;;8.50;99.90;;;;;;4982320;28;20041;-75
2022/03/30 12:38:51;;;;;;;2.83;1.83;;;8.60;99.90;;;;;;4996971;28;20034;-76
2022/03/30 12:41:27;;;;;;;3.33;2.08;;;8.80;99.90;;;;;;5002222;28;20085;-76
2022/03/30 12:43:59;;;;;;;3.67;1.92;;;9.00;99.90;;;;;;4985490;28;20026;-76
2022/03/30 12:46:30;;;;;;;4.35;2.45;;;9.00;99.90;;;;;;4990836;28;20030;-74
2022/03/30 12:49:04;;;;;;;5.70;3.08;;;9.10;99.90;;;;;;4987807;28;20030;-73
2022/03/30 12:51:33;;;;;;;6.40;2.72;;;9.00;99.90;;;;;;4975489;28;20050;-73
2022/03/30 12:54:00;;;;;;;4.97;2.60;;;8.90;99.90;;;;;;4984152;28;20038;-72
2022/03/30 12:56:26;;;;;;;5.03;2.55;;;8.90;99.90;;;;;;4966835;28;20027;-74
2022/03/30 12:58:57;;;;;;;5.88;3.08;;;9.00;99.90;;;;;;4984522;28;20123;-74
2022/03/30 13:01:39;;;;;;;5.28;2.92;;;9.10;99.90;;;;;;4968049;28;20399;-74
2022/03/30 13:04:30;;;;;;;5.93;2.40;;;9.10;99.90;;;;;;4999335;28;20033;-75
2022/03/30 13:07:13;;;;;;;5.75;2.95;;;9.20;99.90;;;;;;5012998;28;20030;-74
2022/03/30 13:10:00;;;;;;;5.47;2.97;;;9.10;99.90;;;;;;5004570;28;20117;-77
2022/03/30 13:12:49;;;;;;;6.40;3.05;;;9.20;99.90;;;;;;4984234;28;20038;-75
2022/03/30 13:15:15;;;;;;;7.15;2.75;;;9.40;99.90;;;;;;5011245;28;20491;-75